Time;durP1;ratioP1;P1;durP2;ratioP2;P2;SDS_P1;SDS_P2;PMS_P1;PMS_P2;Temp;Humidity;BMP_temperature;BMP_pressure;BME280_temperature;BME280_humidity;BME280_pressure;Samples;Min_cycle;Max_cycle;Signal;HPM_P1;HPM_P2
2023/06/03 00:01:12;;;;;;;10.1;6.9;;;;;;;14.8;77.55176;936.3056;;;;
2023/06/03 00:03:39;;;;;;;9.6;7;;;;;;;14.78;77.98828;936.3337;;;;
2023/06/03 00:06:42;;;;;;;8.1;6.2;;;;;;;14.87;77.53125;936.3476;;;;
2023/06/03 00:09:10;;;;;;;10;6.6;;;;;;;14.87;77.64355;936.3228;;;;
2023/06/03 00:11:37;;;;;;;7.7;6.1;;;;;;;14.79;78.0918;936.3281;;;;
2023/06/03 00:14:00;;;;;;;10.2;7.1;;;;;;;14.73;78.45117;936.2317;;;;
2023/06/03 00:16:28;;;;;;;12.1;7.4;;;;;;;14.6;78.81836;936.3689;;;;
2023/06/03 00:18:53;;;;;;;9.2;7;;;;;;;14.23;80.06445;936.4075;;;;
2023/06/03 00:21:20;;;;;;;8.5;6.1;;;;;;;14.37;79.27344;936.4111;;;;
2023/06/03 00:23:45;;;;;;;10.8;7.1;;;;;;;14.35;79.5459;936.3608;;;;
2023/06/03 00:26:13;;;;;;;10.1;6.3;;;;;;;14.34;79.0957;936.4073;;;;
2023/06/03 00:28:38;;;;;;;9.1;6.7;;;;;;;14.37;79.11133;936.4095;;;;
2023/06/03 00:31:03;;;;;;;10.2;7.1;;;;;;;14.44;78.61816;936.4088;;;;
2023/06/03 00:33:29;;;;;;;10.1;6.7;;;;;;;14.4;78.66895;936.4172;;;;
2023/06/03 00:35:56;;;;;;;10.2;6.6;;;;;;;14.48;78.49805;936.4356;;;;
2023/06/03 00:38:21;;;;;;;9.9;6.8;;;;;;;14.56;77.9248;936.4614;;;;
2023/06/03 00:40:48;;;;;;;8.7;6.5;;;;;;;14.56;77.46387;936.4269;;;;
2023/06/03 00:43:13;;;;;;;8.5;6.4;;;;;;;14.46;77.50195;936.4037;;;;
2023/06/03 00:45:41;;;;;;;8;6.2;;;;;;;14.39;77.57129;936.4133;;;;
2023/06/03 00:48:07;;;;;;;8.1;6.5;;;;;;;14.4;77.92969;936.3973;;;;
2023/06/03 00:50:33;;;;;;;9.9;6.6;;;;;;;14.45;77.39844;936.4278;;;;
2023/06/03 00:53:00;;;;;;;12;7;;;;;;;14.4;77.42285;936.4285;;;;
2023/06/03 00:55:25;;;;;;;8.7;6.5;;;;;;;14.41;77.39063;936.45;;;;
2023/06/03 00:57:53;;;;;;;10.5;7;;;;;;;14.46;77.27148;936.3909;;;;
2023/06/03 01:00:20;;;;;;;9;6.6;;;;;;;14.48;77.08008;936.3956;;;;
2023/06/03 01:02:46;;;;;;;9.1;6.5;;;;;;;14.34;77.49414;936.3248;;;;
2023/06/03 01:05:16;;;;;;;8.4;6.4;;;;;;;14.26;77.80078;936.3063;;;;
2023/06/03 01:07:48;;;;;;;9.5;6.6;;;;;;;14.16;78.62305;936.3251;;;;
2023/06/03 01:10:15;;;;;;;11.4;6.9;;;;;;;14.11;78.80957;936.2952;;;;
2023/06/03 01:12:40;;;;;;;10.4;6.8;;;;;;;13.98;78.7998;936.3117;;;;
2023/06/03 01:15:11;;;;;;;10.4;6.9;;;;;;;13.89;79.03613;936.3588;;;;
2023/06/03 01:17:39;;;;;;;7.9;6.6;;;;;;;13.85;78.98242;936.3638;;;;
2023/06/03 01:20:03;;;;;;;9.5;6.6;;;;;;;13.84;78.6582;936.3895;;;;
2023/06/03 01:22:28;;;;;;;11.3;6.6;;;;;;;13.78;78.86719;936.3064;;;;
2023/06/03 01:24:53;;;;;;;11;7.1;;;;;;;13.73;79.32715;936.3835;;;;
2023/06/03 01:27:18;;;;;;;10.4;6.8;;;;;;;13.66;79.82324;936.4103;;;;
2023/06/03 01:29:42;;;;;;;11.3;7.3;;;;;;;13.64;80.01367;936.4016;;;;
2023/06/03 01:32:48;;;;;;;10.9;7.3;;;;;;;13.69;79.90918;936.3597;;;;
2023/06/03 01:35:44;;;;;;;8.9;6.5;;;;;;;13.7;79.58691;936.298;;;;
2023/06/03 01:38:09;;;;;;;8.7;6.9;;;;;;;13.67;79.85938;936.3582;;;;
2023/06/03 01:40:36;;;;;;;10.1;7;;;;;;;13.57;80.13867;936.3312;;;;
2023/06/03 01:43:02;;;;;;;8.9;7;;;;;;;13.54;80.4209;936.3602;;;;
2023/06/03 01:45:28;;;;;;;10.3;6.8;;;;;;;13.59;80.1416;936.3072;;;;
2023/06/03 01:47:53;;;;;;;9.1;6.9;;;;;;;13.47;80.47656;936.3645;;;;
2023/06/03 01:50:22;;;;;;;9.3;6.7;;;;;;;13.48;80.50098;936.3014;;;;
2023/06/03 01:52:47;;;;;;;10.2;7.1;;;;;;;13.56;80.5625;936.3569;;;;
2023/06/03 01:55:16;;;;;;;10.4;6.9;;;;;;;13.58;80.1748;936.2944;;;;
2023/06/03 01:57:41;;;;;;;11.6;6.9;;;;;;;13.42;80.77832;936.3272;;;;
2023/06/03 02:00:11;;;;;;;11;7.1;;;;;;;13.48;80.31738;936.2862;;;;
2023/06/03 02:02:36;;;;;;;8.9;6.8;;;;;;;13.38;80.54102;936.2727;;;;
2023/06/03 02:06:25;;;;;;;9;6.7;;;;;;;13.26;80.8291;936.2364;;;;
2023/06/03 02:08:49;;;;;;;9.1;6.7;;;;;;;13.13;81.50586;936.2364;;;;
2023/06/03 02:11:14;;;;;;;9.4;6.8;;;;;;;13.19;81.34277;936.2076;;;;
2023/06/03 02:13:39;;;;;;;9.9;7;;;;;;;13.2;81.27832;936.1533;;;;
2023/06/03 02:16:08;;;;;;;10.5;6.9;;;;;;;13.16;81.28027;936.1155;;;;
2023/06/03 02:18:34;;;;;;;10.8;6.9;;;;;;;13.17;81.30469;936.0715;;;;
2023/06/03 02:21:00;;;;;;;8.4;6.8;;;;;;;13.26;80.8291;936.1102;;;;
2023/06/03 02:23:24;;;;;;;9;7.2;;;;;;;13.19;81.05566;936.0558;;;;
2023/06/03 02:25:52;;;;;;;10.4;6.7;;;;;;;13.11;81.40918;936.051;;;;
2023/06/03 02:28:22;;;;;;;10.9;7.7;;;;;;;13.11;81.31738;936.0829;;;;
2023/06/03 02:30:43;;;;;;;10.2;7.3;;;;;;;13.07;81.37988;936.0952;;;;
2023/06/03 02:33:14;;;;;;;11.7;7;;;;;;;12.87;82.08887;936.0916;;;;
2023/06/03 02:35:43;;;;;;;9;6.8;;;;;;;12.67;83.20996;936.1077;;;;
2023/06/03 02:38:08;;;;;;;11.3;7.4;;;;;;;12.69;83.4541;936.1188;;;;
2023/06/03 02:40:35;;;;;;;12.5;7.3;;;;;;;12.8;83.05078;936.2056;;;;
2023/06/03 02:43:00;;;;;;;9.7;6.9;;;;;;;12.77;83.01074;936.1386;;;;
2023/06/03 02:45:30;;;;;;;9.9;6.9;;;;;;;12.73;83.15137;936.1827;;;;
2023/06/03 02:48:00;;;;;;;9;7;;;;;;;12.69;83.4082;936.1604;;;;
2023/06/03 02:50:25;;;;;;;9.2;6.8;;;;;;;12.61;83.7373;936.1403;;;;
2023/06/03 02:52:54;;;;;;;9.3;6.9;;;;;;;12.58;83.99414;936.1156;;;;
2023/06/03 02:55:19;;;;;;;9.8;7.4;;;;;;;12.66;83.57324;936.1733;;;;
2023/06/03 02:57:45;;;;;;;10.9;7.2;;;;;;;12.58;84.16797;936.1875;;;;
2023/06/03 03:00:13;;;;;;;9.6;7;;;;;;;12.69;83.68359;936.2291;;;;
2023/06/03 03:02:42;;;;;;;9.7;7.2;;;;;;;12.68;83.69336;936.2195;;;;
2023/06/03 03:07:32;;;;;;;10.5;7.6;;;;;;;12.6;83.78125;936.253;;;;
2023/06/03 03:09:58;;;;;;;11.6;7.4;;;;;;;12.55;83.79395;936.332;;;;
2023/06/03 03:12:23;;;;;;;10.8;7.4;;;;;;;12.56;83.93262;936.3441;;;;
2023/06/03 03:14:50;;;;;;;11.8;7.2;;;;;;;12.6;83.71094;936.3775;;;;
2023/06/03 03:17:15;;;;;;;9.3;6.9;;;;;;;12.64;83.43262;936.3562;;;;
2023/06/03 03:19:41;;;;;;;11.1;7.1;;;;;;;12.64;83.21484;936.3378;;;;
2023/06/03 03:22:09;;;;;;;10.1;7.1;;;;;;;12.66;83.40137;936.3122;;;;
2023/06/03 03:24:34;;;;;;;11.1;7.5;;;;;;;12.64;83.10156;936.3514;;;;
2023/06/03 03:26:59;;;;;;;10.3;6.7;;;;;;;12.66;83.36719;936.3106;;;;
2023/06/03 03:29:25;;;;;;;9.3;6.7;;;;;;;12.64;82.95215;936.4049;;;;
2023/06/03 03:31:54;;;;;;;11.3;7.7;;;;;;;12.54;83.54004;936.4104;;;;
2023/06/03 03:34:19;;;;;;;12;7.4;;;;;;;12.46;84.00781;936.4648;;;;
2023/06/03 03:36:47;;;;;;;8;6.9;;;;;;;12.41;84.35254;936.4485;;;;
2023/06/03 03:40:21;;;;;;;9.4;7.3;;;;;;;12.49;84.05859;936.4559;;;;
2023/06/03 03:42:46;;;;;;;8.7;6.9;;;;;;;12.6;83.73535;936.459;;;;
2023/06/03 03:45:11;;;;;;;11.4;7;;;;;;;12.73;82.73828;936.4583;;;;
2023/06/03 03:47:37;;;;;;;11.6;7.5;;;;;;;12.77;82.5752;936.459;;;;
2023/06/03 03:50:06;;;;;;;10.9;6.8;;;;;;;12.75;82.48926;936.5014;;;;
2023/06/03 03:52:34;;;;;;;10.5;6.7;;;;;;;12.83;82.40137;936.4712;;;;
2023/06/03 03:54:59;;;;;;;8.6;6.3;;;;;;;12.86;82.22266;936.4192;;;;
2023/06/03 03:57:25;;;;;;;8.5;6.5;;;;;;;12.79;82.56641;936.4894;;;;
2023/06/03 03:59:55;;;;;;;10.7;7.5;;;;;;;12.71;83.18457;936.4336;;;;
2023/06/03 04:02:41;;;;;;;11;7.4;;;;;;;12.71;83.19434;936.4719;;;;
2023/06/03 04:05:22;;;;;;;8.7;7;;;;;;;12.71;82.92969;936.5374;;;;
2023/06/03 04:07:46;;;;;;;10.6;7.1;;;;;;;12.67;82.7168;936.5072;;;;
2023/06/03 04:10:17;;;;;;;10.9;7.5;;;;;;;12.44;83.55664;936.5103;;;;
2023/06/03 04:12:47;;;;;;;10.7;6.9;;;;;;;12.32;84.44727;936.4319;;;;
2023/06/03 04:15:12;;;;;;;14;7.1;;;;;;;12.39;84.42773;936.4997;;;;
2023/06/03 04:17:40;;;;;;;9.8;7;;;;;;;12.46;83.94824;936.5087;;;;
2023/06/03 04:20:09;;;;;;;10.3;7.2;;;;;;;12.44;84.2998;936.4767;;;;
2023/06/03 04:22:34;;;;;;;11;7.3;;;;;;;12.49;84.86133;936.5334;;;;
2023/06/03 04:24:59;;;;;;;9.1;6.3;;;;;;;12.66;83.53906;936.5878;;;;
2023/06/03 04:27:25;;;;;;;9.8;7.2;;;;;;;12.73;83.83008;936.5773;;;;
2023/06/03 04:29:50;;;;;;;12.2;7.7;;;;;;;12.85;83.26758;936.5974;;;;
2023/06/03 04:32:18;;;;;;;9.5;6.3;;;;;;;12.91;82.79785;936.5637;;;;
2023/06/03 04:34:43;;;;;;;10.4;7.1;;;;;;;12.92;82.20215;936.5669;;;;
2023/06/03 04:37:09;;;;;;;9.8;6.9;;;;;;;12.92;81.9707;936.5797;;;;
2023/06/03 04:39:36;;;;;;;9.5;7.1;;;;;;;12.95;83.35547;936.5549;;;;
2023/06/03 04:42:07;;;;;;;14;7.8;;;;;;;12.98;83.18848;936.4931;;;;
2023/06/03 04:44:31;;;;;;;10.9;7.1;;;;;;;12.99;82.24805;936.4691;;;;
2023/06/03 04:47:00;;;;;;;11.8;7.4;;;;;;;13.03;82.61133;936.4966;;;;
2023/06/03 04:49:22;;;;;;;9.2;7;;;;;;;13.03;81.50879;936.4517;;;;
2023/06/03 04:51:51;;;;;;;11.4;7.3;;;;;;;13.01;82.03418;936.4372;;;;
2023/06/03 04:54:16;;;;;;;9.3;6.9;;;;;;;13.11;81.66211;936.4771;;;;
2023/06/03 04:56:42;;;;;;;8.8;6.6;;;;;;;13.19;81.27637;936.3716;;;;
2023/06/03 04:59:07;;;;;;;8.7;6.8;;;;;;;13.2;80.89941;936.4355;;;;
2023/06/03 05:01:39;;;;;;;9.4;7.2;;;;;;;13.33;81.28906;936.3969;;;;
2023/06/03 05:04:03;;;;;;;8.4;6.4;;;;;;;13.9;79.91211;936.366;;;;
2023/06/03 05:06:33;;;;;;;8.5;5.9;;;;;;;15.32;76.66309;936.3192;;;;
2023/06/03 05:08:56;;;;;;;10;6.3;;;;;;;16.39;70.98438;936.2946;;;;
2023/06/03 05:11:23;;;;;;;7.9;5.5;;;;;;;17.69;64.30078;936.2603;;;;
2023/06/03 05:13:49;;;;;;;9.3;5.7;;;;;;;18.56;60.78711;936.1747;;;;
2023/06/03 05:16:15;;;;;;;7;5.7;;;;;;;18.9;60.27441;936.1041;;;;
2023/06/03 05:18:41;;;;;;;9.1;5.3;;;;;;;19.78;56.71094;936.157;;;;
2023/06/03 05:21:10;;;;;;;7.3;5.1;;;;;;;19.6;56.8623;936.1611;;;;
2023/06/03 05:23:39;;;;;;;7.4;5.3;;;;;;;20.05;56.13867;936.0719;;;;
2023/06/03 05:26:05;;;;;;;6.9;5.1;;;;;;;20.32;53.93066;936.0915;;;;
2023/06/03 05:28:38;;;;;;;7.7;5.3;;;;;;;21.04;53.65723;936.0981;;;;
2023/06/03 05:31:06;;;;;;;5.6;4.7;;;;;;;22.28;50.37012;936.0444;;;;
2023/06/03 05:33:31;;;;;;;6.3;5;;;;;;;21.95;51.9502;936.0597;;;;
2023/06/03 05:36:01;;;;;;;6.9;5.2;;;;;;;21.03;55.73633;936.0508;;;;
2023/06/03 05:38:27;;;;;;;8;4.9;;;;;;;22.27;51.4248;936.0179;;;;
2023/06/03 05:40:51;;;;;;;7.9;5.1;;;;;;;22.8;50.16016;936.0013;;;;
2023/06/03 05:43:18;;;;;;;6.6;4.6;;;;;;;22.25;52.52441;936.0165;;;;
2023/06/03 05:45:44;;;;;;;6;5;;;;;;;21.24;58.24316;936.0084;;;;
2023/06/03 05:48:11;;;;;;;7.6;5.3;;;;;;;21.98;53.02051;936.0405;;;;
2023/06/03 05:50:37;;;;;;;8.1;5.7;;;;;;;20.74;55.4082;935.9987;;;;
2023/06/03 05:53:02;;;;;;;8.4;5.3;;;;;;;20.72;56.57422;936.0211;;;;
2023/06/03 05:55:31;;;;;;;8.6;5.3;;;;;;;21.16;55.2959;935.9631;;;;
2023/06/03 05:57:56;;;;;;;8;4.9;;;;;;;20.3;56.57813;935.9699;;;;
2023/06/03 06:00:21;;;;;;;9.3;5.8;;;;;;;20.62;56.99414;935.9149;;;;
2023/06/03 06:02:47;;;;;;;7.5;5.4;;;;;;;20.55;57.7793;935.9931;;;;
2023/06/03 06:05:11;;;;;;;8.7;5.7;;;;;;;21.36;55.98926;935.9662;;;;
2023/06/03 06:07:39;;;;;;;8.1;5.4;;;;;;;20.97;54.85254;936.0258;;;;
2023/06/03 06:10:04;;;;;;;8;4.9;;;;;;;22.39;52.74023;935.9614;;;;
2023/06/03 06:12:31;;;;;;;8;5.3;;;;;;;23.05;51.23438;935.9282;;;;
2023/06/03 06:14:57;;;;;;;8.5;5.6;;;;;;;22.1;53.67969;936.0033;;;;
2023/06/03 06:17:22;;;;;;;7;5.2;;;;;;;22.45;51.02344;936.0151;;;;
2023/06/03 06:19:48;;;;;;;8;5.2;;;;;;;22.3;53.36328;936.0542;;;;
2023/06/03 06:22:13;;;;;;;6.3;5.1;;;;;;;21.96;52.71289;936.0544;;;;
2023/06/03 06:24:40;;;;;;;7.4;5.7;;;;;;;22.66;51.09473;936.0436;;;;
2023/06/03 06:27:05;;;;;;;6.9;5.2;;;;;;;22.75;51.51563;936.0693;;;;
2023/06/03 06:29:30;;;;;;;6.4;5.3;;;;;;;23.04;49.3877;936.0094;;;;
2023/06/03 06:31:57;;;;;;;6.7;4.9;;;;;;;23.95;48.8291;936.0602;;;;
2023/06/03 06:34:22;;;;;;;6.6;5.2;;;;;;;23.43;47.8418;936.033;;;;
2023/06/03 06:36:52;;;;;;;8.8;5;;;;;;;23.33;47.98633;936.074;;;;
2023/06/03 06:39:20;;;;;;;8;5.2;;;;;;;23.73;48.0293;936.0517;;;;
2023/06/03 06:41:45;;;;;;;5.6;4.8;;;;;;;23.74;48.20703;936.0692;;;;
2023/06/03 06:44:10;;;;;;;7.2;4.9;;;;;;;24.37;46.44824;936.077;;;;
2023/06/03 06:46:36;;;;;;;6.5;4.8;;;;;;;23.54;46.30371;936.0685;;;;
2023/06/03 06:49:01;;;;;;;6.9;4.9;;;;;;;23.17;50.2832;936.0726;;;;
2023/06/03 06:51:26;;;;;;;8.1;5.2;;;;;;;24.42;47.01758;936.0904;;;;
2023/06/03 06:53:53;;;;;;;9.9;5.3;;;;;;;23.6;52.07227;936.0868;;;;
2023/06/03 06:56:18;;;;;;;6.2;4.7;;;;;;;23.08;51.40137;936.0594;;;;
2023/06/03 06:58:45;;;;;;;6.2;4.8;;;;;;;23.33;48.95996;936.0867;;;;
2023/06/03 07:01:10;;;;;;;5.7;5;;;;;;;23.48;50.91699;936.077;;;;
2023/06/03 07:03:39;;;;;;;7.5;4.7;;;;;;;24.11;48.3877;936.0332;;;;
2023/06/03 07:06:04;;;;;;;6.6;4.8;;;;;;;23.31;50.45313;936.0636;;;;
2023/06/03 07:08:32;;;;;;;6.4;4.6;;;;;;;24.2;46.87695;935.9952;;;;
2023/06/03 07:10:57;;;;;;;7.4;4.9;;;;;;;25.12;46.18359;936.0754;;;;
2023/06/03 07:13:22;;;;;;;5.8;5;;;;;;;26.97;39.98633;936.0162;;;;
2023/06/03 07:15:47;;;;;;;7.6;5;;;;;;;24.35;48.9668;936.0577;;;;
2023/06/03 07:18:16;;;;;;;6.7;5.4;;;;;;;24.38;48.67676;936.022;;;;
2023/06/03 07:20:41;;;;;;;6.9;5.2;;;;;;;23.9;48.89551;936.0753;;;;
2023/06/03 07:23:11;;;;;;;6.7;5.3;;;;;;;25.03;47.35449;936.0717;;;;
2023/06/03 07:25:36;;;;;;;10.8;4.9;;;;;;;26.79;42.6123;936.0204;;;;
2023/06/03 07:28:03;;;;;;;7.3;5.3;;;;;;;25.9;45.19922;936.0577;;;;
2023/06/03 07:30:29;;;;;;;7.8;5.3;;;;;;;25.17;47.01563;936.0458;;;;
2023/06/03 07:32:58;;;;;;;6.5;4.9;;;;;;;27.03;41.72363;936.0319;;;;
2023/06/03 07:35:25;;;;;;;7.1;5.3;;;;;;;26.33;42.91211;936.0812;;;;
2023/06/03 07:37:55;;;;;;;7.1;5.2;;;;;;;23.98;49.0918;935.9869;;;;
2023/06/03 07:40:21;;;;;;;10.8;5.8;;;;;;;22.62;53.88281;935.9719;;;;
2023/06/03 07:42:46;;;;;;;10.2;5.7;;;;;;;23.22;52.13379;936.0266;;;;
2023/06/03 07:45:11;;;;;;;8.5;5.5;;;;;;;23.64;50.81934;936.0687;;;;
2023/06/03 07:47:37;;;;;;;9.7;5.6;;;;;;;24.27;49.74707;936.0427;;;;
2023/06/03 07:50:03;;;;;;;8;5.9;;;;;;;25.09;48.56445;936.0858;;;;
2023/06/03 07:52:31;;;;;;;8;6;;;;;;;25.91;46.06445;936.1061;;;;
2023/06/03 07:54:56;;;;;;;9.7;5.9;;;;;;;24.53;48.64551;936.0583;;;;
2023/06/03 07:57:22;;;;;;;7.8;6;;;;;;;25.74;45.78711;936.0674;;;;
2023/06/03 07:59:47;;;;;;;9.8;5.8;;;;;;;24.71;48.11035;936.068;;;;
2023/06/03 08:02:16;;;;;;;7.1;5.9;;;;;;;24.17;50.24316;936.0687;;;;
2023/06/03 08:04:41;;;;;;;9.3;5.7;;;;;;;25.72;45.47656;936.0897;;;;
2023/06/03 08:07:06;;;;;;;7.4;5.6;;;;;;;27.96;40.79883;936.069;;;;
2023/06/03 08:09:36;;;;;;;9.7;5.7;;;;;;;24.87;48.75293;936.0833;;;;
2023/06/03 08:12:01;;;;;;;10;5.5;;;;;;;25.1;48.51855;936.0452;;;;
2023/06/03 08:14:26;;;;;;;8.7;6;;;;;;;24.49;49.71387;936.0317;;;;
2023/06/03 08:16:54;;;;;;;7;5.8;;;;;;;25.69;45.22559;936.1086;;;;
2023/06/03 08:19:20;;;;;;;7.9;6;;;;;;;26.13;43.56641;936.0571;;;;
2023/06/03 08:21:46;;;;;;;7;5.6;;;;;;;26.72;42.74805;936.0965;;;;
2023/06/03 08:24:12;;;;;;;7.9;5.7;;;;;;;27.04;42.68359;936.0198;;;;
2023/06/03 08:26:38;;;;;;;8.1;5.9;;;;;;;26.28;45.50977;936.0605;;;;
2023/06/03 08:29:05;;;;;;;6.8;5.6;;;;;;;25.13;47.6123;936.0619;;;;
2023/06/03 08:31:32;;;;;;;7.7;5.6;;;;;;;27.3;42.02051;936.005;;;;
2023/06/03 08:33:57;;;;;;;9;5.5;;;;;;;26.63;44.3623;936.0098;;;;
2023/06/03 08:36:22;;;;;;;8.8;5.6;;;;;;;27.14;41.44824;936.0528;;;;
2023/06/03 08:38:53;;;;;;;7.6;5.5;;;;;;;27.62;40.94727;936.0221;;;;
2023/06/03 08:41:23;;;;;;;7.5;5.4;;;;;;;28.31;41.10547;935.9641;;;;
2023/06/03 08:43:53;;;;;;;8.4;5.5;;;;;;;26.98;41.9082;935.9744;;;;
2023/06/03 08:46:19;;;;;;;9;5.3;;;;;;;27.65;40.72461;935.959;;;;
2023/06/03 08:48:44;;;;;;;7.6;5.8;;;;;;;26.28;44.29199;936.0014;;;;
2023/06/03 08:51:09;;;;;;;9.5;5.5;;;;;;;27.48;40.47168;935.9406;;;;
2023/06/03 08:53:36;;;;;;;9.9;5.6;;;;;;;26.62;44.55078;936.015;;;;
2023/06/03 08:56:02;;;;;;;7.3;5.5;;;;;;;27.24;41.25586;936.0011;;;;
2023/06/03 08:58:31;;;;;;;11;5;;;;;;;27.5;40.85254;935.9921;;;;
2023/06/03 09:00:55;;;;;;;7;5.3;;;;;;;27.04;41.99609;936.0381;;;;
2023/06/03 09:03:21;;;;;;;9;5.6;;;;;;;26.56;43.8584;936.043;;;;
2023/06/03 09:05:45;;;;;;;7.5;5.6;;;;;;;27.02;41.92383;936.0201;;;;
2023/06/03 09:08:12;;;;;;;7.9;5.8;;;;;;;26.01;45.625;936.0354;;;;
2023/06/03 09:10:37;;;;;;;11.3;6.3;;;;;;;26.79;42.43555;936.0153;;;;
2023/06/03 09:13:07;;;;;;;10.4;6.1;;;;;;;26.93;42.91113;936.0248;;;;
2023/06/03 09:15:32;;;;;;;7.1;5.4;;;;;;;26.85;43.16211;936.0405;;;;
2023/06/03 09:17:59;;;;;;;7.2;5.8;;;;;;;27.76;40.37695;936.0801;;;;
2023/06/03 09:20:24;;;;;;;6.1;5.3;;;;;;;28.12;39.98145;936.0438;;;;
2023/06/03 09:22:53;;;;;;;9;6;;;;;;;25.99;44.90234;936.0854;;;;
2023/06/03 09:25:23;;;;;;;9.2;6.3;;;;;;;25.72;45.40625;936.0728;;;;
2023/06/03 09:27:49;;;;;;;8.7;5.9;;;;;;;25.34;47.31641;936.0001;;;;
2023/06/03 09:30:18;;;;;;;9.8;6.1;;;;;;;25.35;46.12402;936.0064;;;;
2023/06/03 09:32:48;;;;;;;9.2;6.1;;;;;;;26.05;44.28027;936.0048;;;;
2023/06/03 09:35:17;;;;;;;8.9;6;;;;;;;24.79;50.84277;936.0072;;;;
2023/06/03 09:37:42;;;;;;;7.1;5.7;;;;;;;24.01;52.21387;935.9688;;;;
2023/06/03 09:40:13;;;;;;;13.3;6.3;;;;;;;24.31;50.42285;935.9752;;;;
2023/06/03 09:42:43;;;;;;;9;5.5;;;;;;;25.21;48.53027;936.0131;;;;
2023/06/03 09:45:14;;;;;;;8.7;5.8;;;;;;;25.04;47.99316;935.927;;;;
2023/06/03 09:47:39;;;;;;;10.9;5.9;;;;;;;24.6;50.0918;935.9588;;;;
2023/06/03 09:50:04;;;;;;;6.7;5.4;;;;;;;24.63;49.61133;935.94;;;;
2023/06/03 09:52:33;;;;;;;8.1;5.4;;;;;;;23.98;52.43457;935.9122;;;;
2023/06/03 09:54:58;;;;;;;7.2;5.2;;;;;;;24.58;49.90039;935.9761;;;;
2023/06/03 09:57:25;;;;;;;8.7;5.7;;;;;;;25.27;47.17871;935.9467;;;;
2023/06/03 09:59:50;;;;;;;8.6;6.2;;;;;;;25.58;47.49609;935.9969;;;;
2023/06/03 10:02:15;;;;;;;8.2;5.6;;;;;;;24.44;51.21582;935.9023;;;;
2023/06/03 10:04:41;;;;;;;9.3;5.9;;;;;;;23.98;52.45801;935.8461;;;;
2023/06/03 10:07:06;;;;;;;8.5;6.2;;;;;;;24.06;50.53711;935.842;;;;
2023/06/03 10:09:31;;;;;;;9.2;5.8;;;;;;;23.58;54.75195;935.8589;;;;
2023/06/03 10:11:56;;;;;;;7.6;5.8;;;;;;;23.05;55.05176;935.847;;;;
2023/06/03 10:14:21;;;;;;;9.1;6.2;;;;;;;23.68;51.94141;935.8426;;;;
2023/06/03 10:16:49;;;;;;;8.4;5.8;;;;;;;23.96;53.98633;935.865;;;;
2023/06/03 10:19:14;;;;;;;10.3;5.5;;;;;;;24.15;51.60645;935.83;;;;
2023/06/03 10:21:41;;;;;;;10;6;;;;;;;24.24;51.5;935.8195;;;;
2023/06/03 10:24:06;;;;;;;11.6;6.7;;;;;;;23.52;52.95703;935.7608;;;;
2023/06/03 10:26:31;;;;;;;8.9;5.5;;;;;;;23.39;55.36426;935.7541;;;;
2023/06/03 10:28:59;;;;;;;11.1;5.7;;;;;;;22.75;56.63379;935.7849;;;;
2023/06/03 10:31:24;;;;;;;9.3;5.8;;;;;;;22.8;54.83301;935.7211;;;;
2023/06/03 10:33:49;;;;;;;11.1;6;;;;;;;23.08;56.45215;935.6219;;;;
2023/06/03 10:36:20;;;;;;;11.5;5.7;;;;;;;23.07;53.47852;935.606;;;;
2023/06/03 10:38:45;;;;;;;8.3;5.6;;;;;;;23.15;54.16992;935.6674;;;;
2023/06/03 10:41:15;;;;;;;8.9;5.2;;;;;;;23.13;53.4873;935.6674;;;;
2023/06/03 10:43:40;;;;;;;14.5;6.1;;;;;;;23.19;53.27051;935.6989;;;;
2023/06/03 10:46:06;;;;;;;10.2;6;;;;;;;22.79;55.81738;935.6826;;;;
2023/06/03 10:48:35;;;;;;;7.7;5.4;;;;;;;23.12;54.56543;935.6794;;;;
2023/06/03 10:51:06;;;;;;;11.7;6.4;;;;;;;23.07;52.93848;935.657;;;;
2023/06/03 10:53:34;;;;;;;9;5.3;;;;;;;23.01;54.30664;935.5895;;;;
2023/06/03 10:55:59;;;;;;;12;5.6;;;;;;;23.23;53.14551;935.6741;;;;
2023/06/03 10:58:24;;;;;;;11.5;5.8;;;;;;;23.01;54.0127;935.6356;;;;
2023/06/03 11:00:49;;;;;;;9.2;5.9;;;;;;;23.32;53.5918;935.6497;;;;
2023/06/03 11:03:16;;;;;;;10.4;5;;;;;;;23.53;51.77051;935.592;;;;
2023/06/03 11:05:47;;;;;;;10.4;6.3;;;;;;;23.49;55.10547;935.6433;;;;
2023/06/03 11:08:14;;;;;;;7.6;5.5;;;;;;;23.74;54.30176;935.6944;;;;
2023/06/03 11:10:39;;;;;;;11.6;6.3;;;;;;;23.66;51.77441;935.6191;;;;
2023/06/03 11:13:06;;;;;;;9.9;6;;;;;;;23.62;52.76855;935.6111;;;;
2023/06/03 11:15:31;;;;;;;10.3;5.9;;;;;;;23.49;55.39941;935.5863;;;;
2023/06/03 11:17:58;;;;;;;11.3;6.3;;;;;;;23.61;52.93262;935.678;;;;
2023/06/03 11:20:24;;;;;;;10.6;5.8;;;;;;;23.42;54.59082;935.674;;;;
2023/06/03 11:22:51;;;;;;;8.5;5.4;;;;;;;22.98;55.85352;935.5963;;;;
2023/06/03 11:25:16;;;;;;;16.7;6.4;;;;;;;23.08;56.18359;935.65;;;;
2023/06/03 11:27:42;;;;;;;8.6;5.8;;;;;;;23.55;50.54883;935.6303;;;;
2023/06/03 11:30:07;;;;;;;8.3;5.7;;;;;;;23.68;51.44727;935.5524;;;;
2023/06/03 11:32:32;;;;;;;8.3;5.2;;;;;;;23.61;52.76758;935.5586;;;;
2023/06/03 11:35:03;;;;;;;6.8;5.4;;;;;;;23.52;52.4873;935.5541;;;;
2023/06/03 11:37:26;;;;;;;12.5;5.9;;;;;;;23.51;53.66211;935.5325;;;;
2023/06/03 11:39:54;;;;;;;13.3;5.7;;;;;;;23.72;52.4873;935.575;;;;
2023/06/03 11:42:24;;;;;;;9.9;5.5;;;;;;;23.76;50.76172;935.5039;;;;
2023/06/03 11:44:49;;;;;;;13.5;6.1;;;;;;;23.44;55.04004;935.4816;;;;
2023/06/03 11:47:14;;;;;;;7.3;5.7;;;;;;;23.85;51.58398;935.4725;;;;
2023/06/03 11:49:39;;;;;;;8.5;5.7;;;;;;;23.9;51.81348;935.4883;;;;
2023/06/03 11:52:07;;;;;;;9.9;5.7;;;;;;;23.96;52.86816;935.4984;;;;
2023/06/03 11:54:31;;;;;;;8.3;5.5;;;;;;;24.35;49.02637;935.5009;;;;
2023/06/03 11:56:59;;;;;;;7;5.4;;;;;;;24.28;53.01172;935.509;;;;
2023/06/03 11:59:23;;;;;;;9.5;5.7;;;;;;;24.17;51.62109;935.448;;;;
2023/06/03 12:01:50;;;;;;;8.9;5.4;;;;;;;24.23;52.4873;935.3851;;;;
2023/06/03 12:04:16;;;;;;;6.4;4.9;;;;;;;24.29;50.11523;935.46;;;;
2023/06/03 12:06:43;;;;;;;8.2;5.2;;;;;;;24.34;49.66113;935.4119;;;;
2023/06/03 12:09:09;;;;;;;9.4;5.6;;;;;;;24.07;52.04492;935.3803;;;;
2023/06/03 12:11:37;;;;;;;8.2;5.3;;;;;;;24.16;49.24121;935.3606;;;;
2023/06/03 12:14:00;;;;;;;9.3;5.7;;;;;;;24.19;51.58789;935.3365;;;;
2023/06/03 12:16:30;;;;;;;8.7;5.8;;;;;;;23.87;52.19727;935.2864;;;;
2023/06/03 12:18:59;;;;;;;10.2;5.8;;;;;;;23.81;55.74512;935.3658;;;;
2023/06/03 12:21:24;;;;;;;9.6;5.8;;;;;;;23.8;52.79102;935.3289;;;;
2023/06/03 12:23:49;;;;;;;10.3;5.7;;;;;;;24.02;50.63867;935.3326;;;;
2023/06/03 12:26:17;;;;;;;9.2;4.9;;;;;;;24.26;51.05371;935.3766;;;;
2023/06/03 12:28:42;;;;;;;11;5.6;;;;;;;24.13;52.5;935.3725;;;;
2023/06/03 12:31:11;;;;;;;9.8;4.9;;;;;;;23.82;55.34668;935.3117;;;;
2023/06/03 12:33:36;;;;;;;8.3;5.4;;;;;;;24.04;50.21582;935.3803;;;;
2023/06/03 12:36:03;;;;;;;8.5;5.6;;;;;;;23.94;50.87598;935.3335;;;;
2023/06/03 12:38:29;;;;;;;9.9;5.3;;;;;;;23.94;51.9834;935.3723;;;;
2023/06/03 12:40:55;;;;;;;7.2;5.1;;;;;;;23.65;52.10254;935.3562;;;;
2023/06/03 12:43:22;;;;;;;8.1;5.2;;;;;;;23.35;55.80566;935.337;;;;
2023/06/03 12:45:47;;;;;;;7;5.4;;;;;;;23.6;51.33203;935.3247;;;;
2023/06/03 12:48:12;;;;;;;6.6;5;;;;;;;23.66;50.90234;935.4054;;;;
2023/06/03 12:50:37;;;;;;;8.7;5.3;;;;;;;23.45;51.12598;935.3738;;;;
2023/06/03 12:53:02;;;;;;;7.2;5.3;;;;;;;23.28;54.18555;935.3078;;;;
2023/06/03 12:55:34;;;;;;;9.7;5.7;;;;;;;23.39;54.87012;935.3816;;;;
2023/06/03 12:58:01;;;;;;;7.6;5.3;;;;;;;23.58;52.29395;935.3314;;;;
2023/06/03 13:00:26;;;;;;;9.1;5.5;;;;;;;23.67;53.59863;935.3066;;;;
2023/06/03 13:02:56;;;;;;;8.7;5.3;;;;;;;23.51;52.83789;935.2522;;;;
2023/06/03 13:05:21;;;;;;;9.1;5.1;;;;;;;23.37;52.8457;935.3914;;;;
2023/06/03 13:07:45;;;;;;;9.2;5.6;;;;;;;23.28;53.5752;935.2972;;;;
2023/06/03 13:10:09;;;;;;;7.5;5;;;;;;;23.46;52.60938;935.3536;;;;
2023/06/03 13:12:37;;;;;;;8.9;5.5;;;;;;;23.62;52.69922;935.2418;;;;
2023/06/03 13:15:03;;;;;;;7.2;4.8;;;;;;;23.58;53.64551;935.2715;;;;
2023/06/03 13:17:33;;;;;;;7.3;5.1;;;;;;;23.6;52.64941;935.3337;;;;
2023/06/03 13:20:00;;;;;;;7;5;;;;;;;23.6;51.88477;935.3699;;;;
2023/06/03 13:22:26;;;;;;;8.9;5.1;;;;;;;23.56;51.87988;935.2932;;;;
2023/06/03 13:24:52;;;;;;;11.8;5.3;;;;;;;23.58;52.28125;935.4146;;;;
2023/06/03 13:27:17;;;;;;;7.7;5;;;;;;;23.33;51.06445;935.3959;;;;
2023/06/03 13:29:41;;;;;;;9.4;5;;;;;;;23.16;52.4209;935.3429;;;;
2023/06/03 13:32:08;;;;;;;6.5;4.7;;;;;;;23.06;52.98438;935.2733;;;;
2023/06/03 13:34:33;;;;;;;6.2;4.5;;;;;;;22.97;52.29199;935.2573;;;;
2023/06/03 13:36:58;;;;;;;7.2;4.7;;;;;;;22.87;52.47949;935.27;;;;
2023/06/03 13:39:29;;;;;;;6.3;5.3;;;;;;;22.89;52.56445;935.2692;;;;
2023/06/03 13:41:53;;;;;;;11.2;5.3;;;;;;;22.82;54.01172;935.1956;;;;
2023/06/03 13:44:20;;;;;;;11.5;5.8;;;;;;;22.72;55.23242;935.1735;;;;
2023/06/03 13:46:44;;;;;;;6.4;4.6;;;;;;;22.94;54.87305;935.2083;;;;
2023/06/03 13:49:13;;;;;;;9.9;5.6;;;;;;;22.96;54.99316;935.1686;;;;
2023/06/03 13:51:38;;;;;;;7.8;5.4;;;;;;;23.06;54.23047;935.253;;;;
2023/06/03 13:54:06;;;;;;;10.4;5.2;;;;;;;22.89;53.97363;935.0734;;;;
2023/06/03 13:56:30;;;;;;;7.9;4.8;;;;;;;22.56;54.93066;935.1816;;;;
2023/06/03 13:58:57;;;;;;;7.9;4.9;;;;;;;22.08;54.53223;935.121;;;;
2023/06/03 14:01:24;;;;;;;8.6;5.2;;;;;;;22.04;55.61719;935.1671;;;;
2023/06/03 14:04:16;;;;;;;10;4.9;;;;;;;22.3;54.24316;935.179;;;;
2023/06/03 14:06:41;;;;;;;8.1;4.7;;;;;;;22.46;54.22656;935.2287;;;;
2023/06/03 14:09:07;;;;;;;8.8;4.5;;;;;;;22.61;54.94922;935.2061;;;;
2023/06/03 14:11:32;;;;;;;9.3;5.1;;;;;;;22.72;53.38965;935.1663;;;;
2023/06/03 14:14:00;;;;;;;6.8;5;;;;;;;22.87;52.79785;935.2292;;;;
2023/06/03 14:16:26;;;;;;;6.6;4.5;;;;;;;23.08;53.1748;935.2279;;;;
2023/06/03 14:18:50;;;;;;;9.7;4.7;;;;;;;22.88;54.86621;935.3269;;;;
2023/06/03 14:21:16;;;;;;;7;4.7;;;;;;;23.01;53.95313;935.3152;;;;
2023/06/03 14:23:41;;;;;;;7.2;4.8;;;;;;;23.33;53.0166;935.3315;;;;
2023/06/03 14:26:11;;;;;;;7.5;4.8;;;;;;;23.38;52.28223;935.3519;;;;